TimePST,TemperatureF,Dew PointF,Humidity,Sea Level PressureIn,VisibilityMPH,Wind Direction,Wind SpeedMPH,Gust SpeedMPH,PrecipitationIn,Events,Conditions,WindDirDegrees,DateUTC
12:15 AM,46.4,37.4,71,29.82,10.0,WNW,23.0,33.4,N/A,,Mostly Cloudy,290,2012-11-09 08:15:00
12:35 AM,48.2,35.6,62,29.82,10.0,WNW,24.2,31.1,N/A,,Overcast,290,2012-11-09 08:35:00
12:55 AM,46.4,35.6,66,29.82,10.0,WNW,20.7,29.9,N/A,,Overcast,290,2012-11-09 08:55:00
1:15 AM,46.4,37.4,71,29.82,10.0,WNW,24.2,33.4,N/A,,Overcast,290,2012-11-09 09:15:00
1:35 AM,46.4,37.4,71,29.82,10.0,West,24.2,29.9,N/A,,Overcast,280,2012-11-09 09:35:00
1:55 AM,46.4,37.4,71,29.81,10.0,WNW,26.5,33.4,N/A,,Mostly Cloudy,290,2012-11-09 09:55:00
2:15 AM,46.4,35.6,66,29.81,10.0,West,25.3,33.4,N/A,,Scattered Clouds,280,2012-11-09 10:15:00
2:35 AM,44.6,35.6,71,29.81,10.0,West,20.7,26.5,N/A,,Clear,270,2012-11-09 10:35:00
2:55 AM,46.4,35.6,66,29.80,10.0,West,27.6,33.4,N/A,,Scattered Clouds,280,2012-11-09 10:55:00
3:15 AM,46.4,35.6,66,29.80,10.0,West,27.6,32.2,N/A,,Partly Cloudy,280,2012-11-09 11:15:00
3:35 AM,46.4,35.6,66,29.80,10.0,West,26.5,31.1,N/A,,Clear,270,2012-11-09 11:35:00
3:55 AM,44.6,35.6,71,29.80,10.0,West,25.3,31.1,N/A,,Clear,280,2012-11-09 11:55:00
4:15 AM,44.6,35.6,71,29.81,10.0,West,19.6,28.8,N/A,,Clear,270,2012-11-09 12:15:00
4:35 AM,42.8,33.8,70,29.81,10.0,West,19.6,24.2,N/A,,Clear,270,2012-11-09 12:35:00
4:55 AM,44.6,32.0,61,29.81,10.0,West,17.3,23.0,N/A,,Clear,260,2012-11-09 12:55:00
5:15 AM,42.8,32.0,66,29.81,10.0,West,19.6,29.9,N/A,,Clear,270,2012-11-09 13:15:00
5:35 AM,41.0,32.0,70,29.81,10.0,West,18.4,28.8,N/A,,Clear,260,2012-11-09 13:35:00
5:55 AM,41.0,32.0,70,29.81,10.0,West,20.7,31.1,N/A,,Clear,280,2012-11-09 13:55:00
6:15 AM,41.0,32.0,70,29.80,10.0,WNW,31.1,38.0,N/A,,Clear,290,2012-11-09 14:15:00
6:35 AM,41.0,32.0,70,29.82,10.0,West,21.9,34.5,N/A,,Clear,270,2012-11-09 14:35:00
6:55 AM,41.0,30.2,65,29.82,10.0,West,23.0,33.4,N/A,,Clear,280,2012-11-09 14:55:00
7:15 AM,42.8,30.2,61,29.83,10.0,West,21.9,33.4,N/A,,Clear,280,2012-11-09 15:15:00
7:35 AM,44.6,28.4,53,29.83,10.0,West,26.5,34.5,N/A,,Clear,280,2012-11-09 15:35:00
7:55 AM,44.6,28.4,53,29.82,10.0,West,32.2,39.1,N/A,,Clear,280,2012-11-09 15:55:00
8:15 AM,44.6,26.6,49,29.83,9.0,WNW,31.1,40.3,N/A,,Clear,290,2012-11-09 16:15:00
8:35 AM,44.6,28.4,53,29.84,10.0,West,29.9,41.4,N/A,,Clear,280,2012-11-09 16:35:00
8:55 AM,46.4,28.4,50,29.85,10.0,West,28.8,34.5,N/A,,Clear,280,2012-11-09 16:55:00
9:15 AM,46.4,28.4,50,29.87,10.0,West,25.3,38.0,N/A,,Clear,270,2012-11-09 17:15:00
9:35 AM,46.4,28.4,50,29.88,10.0,WSW,15.0,26.5,N/A,,Clear,250,2012-11-09 17:35:00
9:55 AM,46.4,28.4,50,29.89,10.0,West,17.3,26.5,N/A,,Clear,260,2012-11-09 17:55:00
10:15 AM,48.2,26.6,43,29.88,10.0,West,20.7,26.5,N/A,,Clear,270,2012-11-09 18:15:00
10:35 AM,48.2,26.6,43,29.88,10.0,West,26.5,31.1,N/A,,Clear,270,2012-11-09 18:35:00
10:55 AM,48.2,26.6,43,29.88,10.0,West,25.3,35.7,N/A,,Clear,260,2012-11-09 18:55:00
11:15 AM,48.2,26.6,43,29.88,10.0,West,27.6,33.4,N/A,,Clear,260,2012-11-09 19:15:00
11:35 AM,48.2,26.6,43,29.87,10.0,West,25.3,32.2,N/A,,Clear,270,2012-11-09 19:35:00
11:55 AM,48.2,26.6,43,29.86,10.0,West,21.9,33.4,N/A,,Clear,280,2012-11-09 19:55:00
12:15 PM,50.0,26.6,40,29.84,10.0,WNW,24.2,35.7,N/A,,Clear,290,2012-11-09 20:15:00
12:35 PM,50.0,28.4,43,29.85,10.0,West,20.7,26.5,N/A,,Clear,280,2012-11-09 20:35:00
12:55 PM,50.0,26.6,40,29.84,10.0,West,21.9,28.8,N/A,,Clear,280,2012-11-09 20:55:00
1:15 PM,50.0,24.8,37,29.83,10.0,West,27.6,32.2,N/A,,Clear,270,2012-11-09 21:15:00
1:35 PM,50.0,26.6,40,29.82,10.0,West,29.9,33.4,N/A,,Clear,280,2012-11-09 21:35:00
1:55 PM,50.0,24.8,37,29.82,10.0,West,29.9,35.7,N/A,,Clear,270,2012-11-09 21:55:00
2:15 PM,50.0,23.0,35,29.82,10.0,WSW,25.3,35.7,N/A,,Clear,250,2012-11-09 22:15:00
2:35 PM,50.0,23.0,35,29.83,10.0,West,20.7,35.7,N/A,,Clear,260,2012-11-09 22:35:00
2:55 PM,50.0,24.8,37,29.83,10.0,West,18.4,27.6,N/A,,Clear,260,2012-11-09 22:55:00
3:15 PM,48.2,26.6,43,29.83,10.0,West,20.7,28.8,N/A,,Partly Cloudy,280,2012-11-09 23:15:00
3:35 PM,48.2,26.6,43,29.83,10.0,West,16.1,23.0,N/A,,Mostly Cloudy,270,2012-11-09 23:35:00
3:55 PM,48.2,26.6,43,29.83,10.0,West,18.4,25.3,N/A,,Partly Cloudy,260,2012-11-09 23:55:00
4:15 PM,46.4,26.6,46,29.83,10.0,West,20.7,-,N/A,,Clear,260,2012-11-10 00:15:00
4:35 PM,46.4,26.6,46,29.83,10.0,West,19.6,28.8,N/A,,Clear,270,2012-11-10 00:35:00
4:55 PM,44.6,26.6,49,29.83,10.0,West,23.0,31.1,N/A,,Clear,270,2012-11-10 00:55:00
5:15 PM,44.6,28.4,53,29.83,10.0,WNW,20.7,26.5,N/A,,Clear,290,2012-11-10 01:15:00
5:55 PM,44.6,28.4,53,29.85,10.0,West,19.6,25.3,N/A,,Clear,280,2012-11-10 01:55:00
6:15 PM,42.8,28.4,57,29.86,10.0,West,12.7,-,N/A,,Clear,260,2012-11-10 02:15:00
6:35 PM,41.0,30.2,65,29.86,10.0,WSW,15.0,19.6,N/A,,Clear,240,2012-11-10 02:35:00
6:55 PM,42.8,28.4,57,29.86,10.0,South,12.7,21.9,N/A,,Clear,190,2012-11-10 02:55:00
7:35 PM,41.0,26.6,57,29.87,10.0,WSW,10.4,16.1,N/A,,Clear,250,2012-11-10 03:35:00
7:55 PM,41.0,26.6,57,29.87,10.0,SW,11.5,18.4,N/A,,Clear,220,2012-11-10 03:55:00
8:15 PM,41.0,26.6,57,29.88,10.0,SSW,9.2,-,N/A,,Clear,210,2012-11-10 04:15:00
8:35 PM,41.0,24.8,53,29.89,10.0,South,6.9,-,N/A,,Clear,180,2012-11-10 04:35:00
8:55 PM,41.0,24.8,53,29.90,10.0,South,10.4,-,N/A,,Clear,190,2012-11-10 04:55:00
9:15 PM,41.0,24.8,53,29.90,10.0,South,10.4,-,N/A,,Partly Cloudy,170,2012-11-10 05:15:00
9:35 PM,41.0,24.8,53,29.90,10.0,SSW,13.8,-,N/A,,Mostly Cloudy,200,2012-11-10 05:35:00
9:55 PM,41.0,26.6,57,29.91,10.0,SW,12.7,-,N/A,,Mostly Cloudy,220,2012-11-10 05:55:00
10:15 PM,41.0,26.6,57,29.91,10.0,WNW,12.7,19.6,N/A,,Partly Cloudy,290,2012-11-10 06:15:00
10:35 PM,41.0,26.6,57,29.92,10.0,WSW,12.7,17.3,N/A,,Clear,240,2012-11-10 06:35:00
10:55 PM,39.2,26.6,61,29.92,10.0,SW,15.0,18.4,N/A,,Clear,230,2012-11-10 06:55:00
11:15 PM,39.2,26.6,61,29.91,10.0,West,12.7,-,N/A,,Clear,270,2012-11-10 07:15:00
11:35 PM,41.0,24.8,53,29.90,10.0,West,17.3,24.2,N/A,,Clear,260,2012-11-10 07:35:00
11:55 PM,39.2,26.6,61,29.90,10.0,WSW,18.4,-,N/A,,Clear,250,2012-11-10 07:55:00